createdAt,value
2019-02-19T00:01:48.520Z,100549
2019-02-19T00:07:11.367Z,100543
2019-02-19T00:12:34.093Z,100551
2019-02-19T00:17:56.831Z,100542
2019-02-19T00:23:19.585Z,100538
2019-02-19T00:28:42.390Z,100532
2019-02-19T00:34:05.053Z,100541
2019-02-19T00:39:27.781Z,100544
2019-02-19T00:44:50.509Z,100542
2019-02-19T00:50:13.242Z,100540
2019-02-19T00:55:36.032Z,100530
2019-02-19T01:01:00.008Z,100535
2019-02-19T01:06:22.786Z,100540
2019-02-19T01:11:45.477Z,100542
2019-02-19T01:17:08.287Z,100546
2019-02-19T01:22:31.068Z,100553
2019-02-19T01:27:53.833Z,100551
2019-02-19T01:33:16.769Z,100550
2019-02-19T01:38:39.567Z,100540
2019-02-19T01:44:02.488Z,100541
2019-02-19T01:49:25.253Z,100535
2019-02-19T01:54:47.924Z,100531
2019-02-19T02:00:10.712Z,100528
2019-02-19T02:05:34.039Z,100530
2019-02-19T02:10:57.818Z,100529
2019-02-19T02:16:20.913Z,100523
2019-02-19T02:21:43.522Z,100520
2019-02-19T02:27:06.381Z,100516
2019-02-19T02:32:30.092Z,100516
2019-02-19T02:37:52.866Z,100518
2019-02-19T02:43:15.713Z,100521
2019-02-19T02:48:38.528Z,100524
2019-02-19T02:54:02.177Z,100526
2019-02-19T02:59:25.664Z,100522
2019-02-19T03:04:48.487Z,100522
2019-02-19T03:10:11.168Z,100516
2019-02-19T03:15:33.980Z,100529
2019-02-19T03:20:56.705Z,100529
2019-02-19T03:26:19.491Z,100531
2019-02-19T03:31:42.188Z,100542
2019-02-19T03:37:04.944Z,100542
2019-02-19T03:42:27.679Z,100552
2019-02-19T03:47:50.457Z,100561
2019-02-19T03:53:13.223Z,100560
2019-02-19T03:58:35.983Z,100559
2019-02-19T04:03:58.726Z,100559
2019-02-19T04:09:21.527Z,100560
2019-02-19T04:14:46.074Z,100566
2019-02-19T04:20:08.944Z,100562
2019-02-19T04:25:32.035Z,100569
2019-02-19T04:30:54.857Z,100569
2019-02-19T04:36:17.606Z,100561
2019-02-19T04:41:40.383Z,100560
2019-02-19T04:47:03.167Z,100566
2019-02-19T04:52:25.858Z,100587
2019-02-19T04:57:48.575Z,100585
2019-02-19T05:03:11.326Z,100586
2019-02-19T05:08:34.110Z,100595
2019-02-19T05:13:59.010Z,100588
2019-02-19T05:19:21.908Z,100601
2019-02-19T05:24:44.641Z,100596
2019-02-19T05:30:08.583Z,100600
2019-02-19T05:35:31.330Z,100598
2019-02-19T05:40:54.149Z,100603
2019-02-19T05:46:16.919Z,100597
2019-02-19T05:51:39.690Z,100600
2019-02-19T05:57:02.614Z,100606
2019-02-19T06:02:28.919Z,100607
2019-02-19T06:07:51.704Z,100613
2019-02-19T06:13:14.464Z,100625
2019-02-19T06:18:37.249Z,100630
2019-02-19T06:24:00.146Z,100627
2019-02-19T06:29:22.945Z,100626
2019-02-19T06:34:46.755Z,100636
2019-02-19T06:40:09.789Z,100637
2019-02-19T06:45:32.500Z,100638
2019-02-19T06:50:55.186Z,100654
2019-02-19T06:56:17.864Z,100655
2019-02-19T07:01:40.544Z,100667
2019-02-19T07:07:03.292Z,100674
2019-02-19T07:12:26.195Z,100681
2019-02-19T07:17:49.069Z,100687
2019-02-19T07:23:11.986Z,100701
2019-02-19T07:28:34.703Z,100703
2019-02-19T07:33:57.414Z,100707
2019-02-19T07:39:20.131Z,100713
2019-02-19T07:44:42.941Z,100713
2019-02-19T07:50:06.616Z,100720
2019-02-19T07:55:29.380Z,100723
2019-02-19T08:00:52.082Z,100734
2019-02-19T08:06:14.863Z,100735
2019-02-19T08:11:38.185Z,100749
2019-02-19T08:17:00.941Z,100751
2019-02-19T08:22:24.066Z,100753
2019-02-19T08:27:46.972Z,100749
2019-02-19T08:33:09.690Z,100751
2019-02-19T08:38:32.451Z,100740
2019-02-19T08:43:55.808Z,100755
2019-02-19T08:49:18.595Z,100761
2019-02-19T08:54:41.454Z,100756
2019-02-19T09:00:04.165Z,100759
2019-02-19T09:05:26.996Z,100759
2019-02-19T09:10:49.894Z,100762
2019-02-19T09:16:12.796Z,100771
2019-02-19T09:21:35.510Z,100770
2019-02-19T09:26:58.235Z,100767
2019-02-19T09:32:20.965Z,100777
2019-02-19T09:37:43.746Z,100777
2019-02-19T09:43:06.400Z,100774
2019-02-19T09:48:29.320Z,100777
2019-02-19T09:53:52.146Z,100777
2019-02-19T09:59:14.883Z,100781
2019-02-19T10:04:37.594Z,100784
2019-02-19T10:10:00.395Z,100778
2019-02-19T10:15:23.125Z,100782
2019-02-19T10:20:45.884Z,100786
2019-02-19T10:26:09.646Z,100783
2019-02-19T10:31:32.398Z,100788
2019-02-19T10:36:55.149Z,100786
2019-02-19T10:42:19.000Z,100784
2019-02-19T10:47:40.606Z,100791
2019-02-19T10:53:03.439Z,100790
2019-02-19T10:58:26.236Z,100803
2019-02-19T11:03:48.933Z,100801
2019-02-19T11:09:11.636Z,100805
2019-02-19T11:14:34.496Z,100805
2019-02-19T11:19:57.301Z,100805
2019-02-19T11:25:21.083Z,100808
2019-02-19T11:30:44.178Z,100799
2019-02-19T11:36:06.908Z,100788
2019-02-19T11:41:29.666Z,100786
2019-02-19T11:46:52.851Z,100782
2019-02-19T11:52:16.668Z,100784
2019-02-19T11:57:39.515Z,100793
2019-02-19T12:03:03.341Z,100789
2019-02-19T12:08:26.241Z,100788
2019-02-19T12:13:50.020Z,100795
2019-02-19T12:19:12.857Z,100788
2019-02-19T12:24:35.597Z,100784
2019-02-19T12:29:58.455Z,100776
2019-02-19T12:35:21.154Z,100787
2019-02-19T12:40:43.826Z,100792
2019-02-19T12:46:06.760Z,100785
2019-02-19T12:51:29.461Z,100768
2019-02-19T12:56:52.179Z,100765
2019-02-19T13:02:14.904Z,100768
2019-02-19T13:07:38.721Z,100773
2019-02-19T13:13:01.483Z,100760
2019-02-19T13:18:25.323Z,100771
2019-02-19T13:23:48.076Z,100777
2019-02-19T13:29:10.903Z,100779
2019-02-19T13:34:33.682Z,100776
2019-02-19T13:39:56.523Z,100781
2019-02-19T13:45:19.364Z,100784
2019-02-19T13:50:42.515Z,100787
2019-02-19T13:56:05.255Z,100798
2019-02-19T14:01:27.919Z,100802
2019-02-19T14:06:50.714Z,100793
2019-02-19T14:12:13.443Z,100796
2019-02-19T14:17:37.332Z,100806
2019-02-19T14:23:00.094Z,100811
2019-02-19T14:28:22.921Z,100808
2019-02-19T14:33:48.928Z,100813
2019-02-19T14:39:08.413Z,100818
2019-02-19T14:44:31.064Z,100819
2019-02-19T14:49:53.789Z,100824
2019-02-19T14:55:16.887Z,100814
2019-02-19T15:00:40.655Z,100813
2019-02-19T15:06:04.199Z,100820
2019-02-19T15:11:26.893Z,100809
2019-02-19T15:16:50.555Z,100820
2019-02-19T15:22:13.364Z,100821
2019-02-19T15:27:36.157Z,100820
2019-02-19T15:32:59.444Z,100811
2019-02-19T15:38:22.133Z,100813
2019-02-19T15:43:44.840Z,100826
2019-02-19T15:49:07.736Z,100826
2019-02-19T15:54:30.424Z,100822
2019-02-19T15:59:54.112Z,100827
2019-02-19T16:05:17.000Z,100830
2019-02-19T16:10:40.750Z,100841
2019-02-19T16:16:03.614Z,100842
2019-02-19T16:21:26.327Z,100841
2019-02-19T16:26:48.972Z,100846
2019-02-19T16:32:11.679Z,100848
2019-02-19T16:37:34.333Z,100849
2019-02-19T16:42:57.087Z,100854
2019-02-19T16:48:19.853Z,100857
2019-02-19T16:53:42.626Z,100855
2019-02-19T16:59:07.324Z,100860
2019-02-19T17:04:28.276Z,100860
2019-02-19T17:09:51.333Z,100862
2019-02-19T17:15:14.108Z,100866
2019-02-19T17:20:37.000Z,100867
2019-02-19T17:26:01.247Z,100877
2019-02-19T17:31:25.163Z,100880
2019-02-19T17:36:47.941Z,100887
2019-02-19T17:42:11.552Z,100889
2019-02-19T17:47:34.338Z,100895
2019-02-19T17:53:05.810Z,100905
2019-02-19T17:58:28.558Z,100915
2019-02-19T18:03:51.893Z,100920
2019-02-19T18:09:14.763Z,100913
2019-02-19T18:14:37.922Z,100925
2019-02-19T18:20:01.100Z,100937
2019-02-19T18:25:24.419Z,100949
2019-02-19T18:30:47.616Z,100948
2019-02-19T18:36:10.883Z,100940
2019-02-19T18:41:33.627Z,100945
2019-02-19T18:46:56.464Z,100950
2019-02-19T18:52:19.239Z,100951
2019-02-19T18:57:42.092Z,100963
2019-02-19T19:03:05.051Z,100966
2019-02-19T19:08:28.033Z,100972
2019-02-19T19:13:50.935Z,100974
2019-02-19T19:19:13.631Z,100974
2019-02-19T19:24:36.308Z,100977
2019-02-19T19:29:59.009Z,100976
2019-02-19T19:35:21.872Z,100977
2019-02-19T19:40:44.712Z,100983
2019-02-19T19:46:07.616Z,100988
2019-02-19T19:51:30.578Z,100991
2019-02-19T19:56:53.597Z,100997
2019-02-19T20:02:18.425Z,100994
2019-02-19T20:07:38.758Z,101006
2019-02-19T20:13:02.105Z,101010
2019-02-19T20:18:25.729Z,101010
2019-02-19T20:23:50.265Z,101012
2019-02-19T20:29:13.905Z,101019
2019-02-19T20:34:37.908Z,101032
2019-02-19T20:40:01.312Z,101030
2019-02-19T20:45:24.481Z,101033
2019-02-19T20:50:47.635Z,101039
2019-02-19T20:56:10.376Z,101037
2019-02-19T21:01:33.341Z,101040
2019-02-19T21:06:56.041Z,101039
2019-02-19T21:12:19.085Z,101043
2019-02-19T21:17:41.936Z,101038
2019-02-19T21:23:04.702Z,101037
2019-02-19T21:28:27.668Z,101040
2019-02-19T21:33:50.591Z,101039
2019-02-19T21:39:13.579Z,101049
2019-02-19T21:44:36.787Z,101047
2019-02-19T21:49:59.549Z,101043
2019-02-19T21:55:22.411Z,101055
2019-02-19T22:00:45.168Z,101053
2019-02-19T22:06:07.863Z,101053
2019-02-19T22:11:30.588Z,101057
2019-02-19T22:16:53.312Z,101051
2019-02-19T22:22:16.071Z,101052
2019-02-19T22:27:38.906Z,101055
2019-02-19T22:33:01.649Z,101062
2019-02-19T22:38:24.474Z,101065
2019-02-19T22:43:47.233Z,101076
2019-02-19T22:49:10.199Z,101074
2019-02-19T22:54:33.006Z,101075
2019-02-19T22:59:55.929Z,101073
2019-02-19T23:05:18.829Z,101069
2019-02-19T23:10:41.579Z,101070
2019-02-19T23:16:04.292Z,101076
2019-02-19T23:21:27.007Z,101079
2019-02-19T23:26:50.665Z,101084
2019-02-19T23:32:13.346Z,101082
2019-02-19T23:37:36.077Z,101085
2019-02-19T23:42:59.003Z,101077
2019-02-19T23:48:21.800Z,101079
2019-02-19T23:53:44.527Z,101083
2019-02-19T23:59:07.253Z,101086
